sensor_id;sensor_type;location;lat;lon;timestamp;P1;durP1;ratioP1;P2;durP2;ratioP2
17967;SDS011;9109;48.050;11.696;2022-07-29T03:47:05;3.40;;;1.00;;
17967;SDS011;9109;48.050;11.696;2022-07-29T03:50:15;4.85;;;1.20;;
17967;SDS011;9109;48.050;11.696;2022-07-29T03:53:36;1.77;;;1.42;;
17967;SDS011;9109;48.050;11.696;2022-07-29T03:56:39;3.28;;;1.30;;
17967;SDS011;9109;48.050;11.696;2022-07-29T03:59:46;3.38;;;1.50;;
17967;SDS011;9109;48.050;11.696;2022-07-29T04:02:50;4.22;;;1.08;;
17967;SDS011;9109;48.050;11.696;2022-07-29T04:06:01;1.55;;;1.20;;
17967;SDS011;9109;48.050;11.696;2022-07-29T04:09:05;1.42;;;1.08;;
17967;SDS011;9109;48.050;11.696;2022-07-29T04:12:08;3.22;;;1.30;;
17967;SDS011;9109;48.050;11.696;2022-07-29T04:15:11;3.22;;;1.40;;
17967;SDS011;9109;48.050;11.696;2022-07-29T04:18:16;2.03;;;1.30;;
17967;SDS011;9109;48.050;11.696;2022-07-29T04:21:17;1.33;;;0.98;;
17967;SDS011;9109;48.050;11.696;2022-07-29T04:24:19;5.43;;;1.50;;
17967;SDS011;9109;48.050;11.696;2022-07-29T04:27:21;6.97;;;1.33;;
17967;SDS011;9109;48.050;11.696;2022-07-29T04:30:24;2.45;;;1.33;;
17967;SDS011;9109;48.050;11.696;2022-07-29T04:33:27;2.50;;;1.30;;
17967;SDS011;9109;48.050;11.696;2022-07-29T04:36:29;2.10;;;1.17;;
17967;SDS011;9109;48.050;11.696;2022-07-29T04:39:31;3.97;;;1.45;;
17967;SDS011;9109;48.050;11.696;2022-07-29T04:42:33;2.28;;;1.30;;
17967;SDS011;9109;48.050;11.696;2022-07-29T04:45:34;1.77;;;1.48;;
17967;SDS011;9109;48.050;11.696;2022-07-29T04:48:40;1.75;;;1.20;;
17967;SDS011;9109;48.050;11.696;2022-07-29T04:51:46;2.17;;;1.50;;
17967;SDS011;9109;48.050;11.696;2022-07-29T04:55:00;2.17;;;1.52;;
17967;SDS011;9109;48.050;11.696;2022-07-29T04:58:13;4.22;;;1.70;;
17967;SDS011;9109;48.050;11.696;2022-07-29T05:01:26;7.07;;;1.60;;
17967;SDS011;9109;48.050;11.696;2022-07-29T05:04:29;2.58;;;1.83;;
17967;SDS011;9109;48.050;11.696;2022-07-29T05:07:31;5.30;;;1.77;;
17967;SDS011;9109;48.050;11.696;2022-07-29T05:10:34;2.63;;;1.88;;
17967;SDS011;9109;48.050;11.696;2022-07-29T05:13:39;3.03;;;1.80;;
17967;SDS011;9109;48.050;11.696;2022-07-29T05:16:41;4.00;;;1.90;;
17967;SDS011;9109;48.050;11.696;2022-07-29T05:19:45;3.63;;;1.67;;
17967;SDS011;9109;48.050;11.696;2022-07-29T05:22:49;3.70;;;1.85;;
17967;SDS011;9109;48.050;11.696;2022-07-29T05:26:26;2.67;;;1.80;;
17967;SDS011;9109;48.050;11.696;2022-07-29T05:29:42;3.90;;;2.10;;
17967;SDS011;9109;48.050;11.696;2022-07-29T05:32:44;8.18;;;1.98;;
17967;SDS011;9109;48.050;11.696;2022-07-29T05:36:11;3.30;;;1.73;;
17967;SDS011;9109;48.050;11.696;2022-07-29T05:39:36;2.97;;;1.80;;
17967;SDS011;9109;48.050;11.696;2022-07-29T05:42:47;3.13;;;2.05;;
17967;SDS011;9109;48.050;11.696;2022-07-29T05:46:03;4.03;;;1.90;;
17967;SDS011;9109;48.050;11.696;2022-07-29T05:49:05;4.53;;;1.67;;
17967;SDS011;9109;48.050;11.696;2022-07-29T05:52:08;2.67;;;1.70;;
17967;SDS011;9109;48.050;11.696;2022-07-29T05:55:10;3.45;;;1.90;;
17967;SDS011;9109;48.050;11.696;2022-07-29T05:58:12;9.35;;;1.90;;
17967;SDS011;9109;48.050;11.696;2022-07-29T06:01:14;3.05;;;1.70;;
17967;SDS011;9109;48.050;11.696;2022-07-29T06:04:17;2.80;;;1.83;;
17967;SDS011;9109;48.050;11.696;2022-07-29T06:07:20;4.75;;;1.90;;
17967;SDS011;9109;48.050;11.696;2022-07-29T06:10:25;3.05;;;1.80;;
17967;SDS011;9109;48.050;11.696;2022-07-29T06:13:27;4.05;;;1.80;;
17967;SDS011;9109;48.050;11.696;2022-07-29T06:16:29;2.45;;;1.63;;
17967;SDS011;9109;48.050;11.696;2022-07-29T06:19:31;4.53;;;1.77;;
17967;SDS011;9109;48.050;11.696;2022-07-29T06:22:36;3.22;;;1.90;;
17967;SDS011;9109;48.050;11.696;2022-07-29T06:25:39;2.63;;;1.50;;
17967;SDS011;9109;48.050;11.696;2022-07-29T06:28:41;4.22;;;1.48;;
17967;SDS011;9109;48.050;11.696;2022-07-29T06:31:43;1.85;;;1.52;;
17967;SDS011;9109;48.050;11.696;2022-07-29T06:34:45;1.63;;;1.40;;
17967;SDS011;9109;48.050;11.696;2022-07-29T06:37:48;3.67;;;1.85;;
17967;SDS011;9109;48.050;11.696;2022-07-29T06:40:50;8.48;;;1.70;;
17967;SDS011;9109;48.050;11.696;2022-07-29T06:44:02;1.98;;;1.60;;
17967;SDS011;9109;48.050;11.696;2022-07-29T06:47:04;2.80;;;1.50;;
17967;SDS011;9109;48.050;11.696;2022-07-29T06:50:07;2.47;;;1.48;;
17967;SDS011;9109;48.050;11.696;2022-07-29T06:53:13;2.83;;;1.65;;
17967;SDS011;9109;48.050;11.696;2022-07-29T06:56:15;4.22;;;1.88;;
17967;SDS011;9109;48.050;11.696;2022-07-29T06:59:17;1.98;;;1.45;;
17967;SDS011;9109;48.050;11.696;2022-07-29T07:02:19;2.63;;;1.35;;
17967;SDS011;9109;48.050;11.696;2022-07-29T07:05:21;3.33;;;1.65;;
17967;SDS011;9109;48.050;11.696;2022-07-29T07:08:24;1.98;;;1.40;;
17967;SDS011;9109;48.050;11.696;2022-07-29T07:11:26;2.33;;;1.42;;
17967;SDS011;9109;48.050;11.696;2022-07-29T07:14:28;2.45;;;1.40;;
17967;SDS011;9109;48.050;11.696;2022-07-29T07:17:30;2.33;;;1.60;;
17967;SDS011;9109;48.050;11.696;2022-07-29T07:20:32;3.38;;;1.20;;
17967;SDS011;9109;48.050;11.696;2022-07-29T07:23:36;2.92;;;1.83;;
17967;SDS011;9109;48.050;11.696;2022-07-29T07:26:38;2.53;;;1.58;;
17967;SDS011;9109;48.050;11.696;2022-07-29T07:29:40;2.05;;;1.20;;
17967;SDS011;9109;48.050;11.696;2022-07-29T07:32:42;1.83;;;1.10;;
17967;SDS011;9109;48.050;11.696;2022-07-29T07:35:44;3.05;;;1.35;;
17967;SDS011;9109;48.050;11.696;2022-07-29T07:38:47;3.25;;;1.40;;
17967;SDS011;9109;48.050;11.696;2022-07-29T07:41:49;1.98;;;1.27;;
17967;SDS011;9109;48.050;11.696;2022-07-29T07:44:51;1.75;;;1.25;;
17967;SDS011;9109;48.050;11.696;2022-07-29T07:47:53;1.50;;;1.27;;
17967;SDS011;9109;48.050;11.696;2022-07-29T07:50:55;2.38;;;1.40;;
17967;SDS011;9109;48.050;11.696;2022-07-29T07:53:58;2.22;;;1.30;;
17967;SDS011;9109;48.050;11.696;2022-07-29T07:57:01;4.13;;;1.30;;
17967;SDS011;9109;48.050;11.696;2022-07-29T08:00:03;2.65;;;1.13;;
17967;SDS011;9109;48.050;11.696;2022-07-29T08:03:06;2.17;;;1.13;;
17967;SDS011;9109;48.050;11.696;2022-07-29T08:06:08;2.35;;;1.38;;
17967;SDS011;9109;48.050;11.696;2022-07-29T08:09:11;1.52;;;1.25;;
17967;SDS011;9109;48.050;11.696;2022-07-29T08:12:13;2.33;;;1.50;;
17967;SDS011;9109;48.050;11.696;2022-07-29T08:15:15;2.90;;;1.30;;
17967;SDS011;9109;48.050;11.696;2022-07-29T08:18:17;1.75;;;1.30;;
17967;SDS011;9109;48.050;11.696;2022-07-29T08:21:19;3.22;;;1.30;;
17967;SDS011;9109;48.050;11.696;2022-07-29T08:24:22;1.30;;;1.08;;
17967;SDS011;9109;48.050;11.696;2022-07-29T08:27:42;2.42;;;1.40;;
17967;SDS011;9109;48.050;11.696;2022-07-29T08:30:43;4.35;;;1.60;;
17967;SDS011;9109;48.050;11.696;2022-07-29T08:33:45;6.15;;;1.50;;
17967;SDS011;9109;48.050;11.696;2022-07-29T08:36:47;7.90;;;1.40;;
17967;SDS011;9109;48.050;11.696;2022-07-29T08:39:50;1.95;;;1.20;;
17967;SDS011;9109;48.050;11.696;2022-07-29T08:42:52;3.00;;;1.10;;
17967;SDS011;9109;48.050;11.696;2022-07-29T08:45:54;1.63;;;1.23;;
17967;SDS011;9109;48.050;11.696;2022-07-29T08:48:56;1.75;;;1.45;;
17967;SDS011;9109;48.050;11.696;2022-07-29T08:51:58;5.07;;;1.50;;
17967;SDS011;9109;48.050;11.696;2022-07-29T08:55:03;2.75;;;1.67;;
17967;SDS011;9109;48.050;11.696;2022-07-29T08:58:06;1.52;;;1.33;;
17967;SDS011;9109;48.050;11.696;2022-07-29T09:01:09;4.90;;;1.48;;
17967;SDS011;9109;48.050;11.696;2022-07-29T09:04:13;1.20;;;1.10;;
17967;SDS011;9109;48.050;11.696;2022-07-29T09:07:16;4.88;;;1.52;;
17967;SDS011;9109;48.050;11.696;2022-07-29T09:10:21;1.98;;;1.42;;
17967;SDS011;9109;48.050;11.696;2022-07-29T09:13:23;3.00;;;1.70;;
17967;SDS011;9109;48.050;11.696;2022-07-29T09:16:25;4.35;;;1.25;;
17967;SDS011;9109;48.050;11.696;2022-07-29T09:19:44;1.90;;;1.50;;
17967;SDS011;9109;48.050;11.696;2022-07-29T09:22:46;2.22;;;1.38;;
17967;SDS011;9109;48.050;11.696;2022-07-29T09:25:50;2.35;;;1.50;;
17967;SDS011;9109;48.050;11.696;2022-07-29T09:28:52;4.93;;;1.83;;
17967;SDS011;9109;48.050;11.696;2022-07-29T09:31:54;9.35;;;1.75;;
17967;SDS011;9109;48.050;11.696;2022-07-29T09:35:15;3.78;;;1.60;;
17967;SDS011;9109;48.050;11.696;2022-07-29T09:38:18;2.35;;;1.48;;
17967;SDS011;9109;48.050;11.696;2022-07-29T09:41:22;7.63;;;2.40;;
17967;SDS011;9109;48.050;11.696;2022-07-29T09:44:24;3.63;;;1.50;;
17967;SDS011;9109;48.050;11.696;2022-07-29T09:47:39;2.63;;;2.05;;
17967;SDS011;9109;48.050;11.696;2022-07-29T09:50:45;3.40;;;1.30;;
17967;SDS011;9109;48.050;11.696;2022-07-29T09:53:49;4.00;;;1.70;;
17967;SDS011;9109;48.050;11.696;2022-07-29T09:56:53;2.67;;;1.33;;
17967;SDS011;9109;48.050;11.696;2022-07-29T09:59:56;2.05;;;1.60;;
17967;SDS011;9109;48.050;11.696;2022-07-29T10:02:59;2.28;;;1.58;;
17967;SDS011;9109;48.050;11.696;2022-07-29T10:06:06;3.72;;;2.00;;
17967;SDS011;9109;48.050;11.696;2022-07-29T10:09:09;3.75;;;1.90;;
17967;SDS011;9109;48.050;11.696;2022-07-29T10:12:13;6.18;;;2.08;;
17967;SDS011;9109;48.050;11.696;2022-07-29T10:15:15;4.28;;;1.92;;
17967;SDS011;9109;48.050;11.696;2022-07-29T10:18:18;5.07;;;1.77;;
17967;SDS011;9109;48.050;11.696;2022-07-29T10:21:20;4.72;;;2.45;;
17967;SDS011;9109;48.050;11.696;2022-07-29T10:24:23;3.15;;;2.28;;
17967;SDS011;9109;48.050;11.696;2022-07-29T10:27:28;2.85;;;2.00;;
17967;SDS011;9109;48.050;11.696;2022-07-29T10:30:30;2.63;;;1.90;;
17967;SDS011;9109;48.050;11.696;2022-07-29T10:33:37;3.78;;;2.28;;
17967;SDS011;9109;48.050;11.696;2022-07-29T10:36:50;5.10;;;1.98;;
17967;SDS011;9109;48.050;11.696;2022-07-29T10:39:59;9.77;;;2.00;;
17967;SDS011;9109;48.050;11.696;2022-07-29T10:43:30;4.75;;;2.10;;
17967;SDS011;9109;48.050;11.696;2022-07-29T10:46:38;2.35;;;1.80;;
17967;SDS011;9109;48.050;11.696;2022-07-29T10:49:41;5.10;;;2.22;;
17967;SDS011;9109;48.050;11.696;2022-07-29T10:52:58;2.80;;;2.10;;
17967;SDS011;9109;48.050;11.696;2022-07-29T10:56:03;4.38;;;2.30;;
17967;SDS011;9109;48.050;11.696;2022-07-29T10:59:25;3.33;;;2.17;;
17967;SDS011;9109;48.050;11.696;2022-07-29T11:02:44;2.83;;;1.92;;
17967;SDS011;9109;48.050;11.696;2022-07-29T11:05:52;6.90;;;2.10;;
17967;SDS011;9109;48.050;11.696;2022-07-29T11:12:45;3.92;;;2.40;;
17967;SDS011;9109;48.050;11.696;2022-07-29T11:15:53;4.00;;;2.50;;
17967;SDS011;9109;48.050;11.696;2022-07-29T11:22:31;6.55;;;2.33;;
17967;SDS011;9109;48.050;11.696;2022-07-29T11:25:33;2.97;;;2.10;;
17967;SDS011;9109;48.050;11.696;2022-07-29T11:28:36;6.50;;;2.30;;
17967;SDS011;9109;48.050;11.696;2022-07-29T11:31:45;5.07;;;2.22;;
17967;SDS011;9109;48.050;11.696;2022-07-29T11:38:27;6.00;;;2.17;;
17967;SDS011;9109;48.050;11.696;2022-07-29T11:41:29;4.47;;;1.90;;
17967;SDS011;9109;48.050;11.696;2022-07-29T11:47:58;3.00;;;2.08;;
17967;SDS011;9109;48.050;11.696;2022-07-29T11:51:00;2.67;;;2.05;;
17967;SDS011;9109;48.050;11.696;2022-07-29T11:54:11;3.70;;;2.05;;
17967;SDS011;9109;48.050;11.696;2022-07-29T11:57:18;2.65;;;1.88;;
17967;SDS011;9109;48.050;11.696;2022-07-29T12:00:22;2.72;;;1.85;;
17967;SDS011;9109;48.050;11.696;2022-07-29T12:03:27;4.75;;;2.08;;
17967;SDS011;9109;48.050;11.696;2022-07-29T12:06:29;3.05;;;2.03;;
17967;SDS011;9109;48.050;11.696;2022-07-29T12:09:32;6.13;;;1.52;;
17967;SDS011;9109;48.050;11.696;2022-07-29T12:12:34;2.72;;;2.00;;
17967;SDS011;9109;48.050;11.696;2022-07-29T12:15:36;2.95;;;1.80;;
17967;SDS011;9109;48.050;11.696;2022-07-29T12:18:40;2.85;;;2.05;;
17967;SDS011;9109;48.050;11.696;2022-07-29T12:21:45;5.03;;;1.77;;
17967;SDS011;9109;48.050;11.696;2022-07-29T12:24:47;5.55;;;2.08;;
17967;SDS011;9109;48.050;11.696;2022-07-29T12:27:59;5.50;;;1.80;;
17967;SDS011;9109;48.050;11.696;2022-07-29T12:31:02;7.55;;;2.10;;
17967;SDS011;9109;48.050;11.696;2022-07-29T12:34:07;2.72;;;1.80;;
17967;SDS011;9109;48.050;11.696;2022-07-29T12:37:11;2.90;;;2.10;;
17967;SDS011;9109;48.050;11.696;2022-07-29T12:40:14;6.50;;;1.73;;
17967;SDS011;9109;48.050;11.696;2022-07-29T12:43:18;8.60;;;2.28;;
17967;SDS011;9109;48.050;11.696;2022-07-29T12:46:20;2.28;;;1.70;;
17967;SDS011;9109;48.050;11.696;2022-07-29T12:49:24;4.45;;;1.85;;
17967;SDS011;9109;48.050;11.696;2022-07-29T12:52:26;9.93;;;2.00;;
17967;SDS011;9109;48.050;11.696;2022-07-29T12:55:38;3.92;;;2.05;;
17967;SDS011;9109;48.050;11.696;2022-07-29T12:58:41;3.30;;;1.50;;
17967;SDS011;9109;48.050;11.696;2022-07-29T13:01:44;2.97;;;1.70;;
17967;SDS011;9109;48.050;11.696;2022-07-29T13:04:56;1.70;;;1.60;;
17967;SDS011;9109;48.050;11.696;2022-07-29T13:08:09;4.00;;;1.48;;
17967;SDS011;9109;48.050;11.696;2022-07-29T13:11:26;2.67;;;1.35;;
17967;SDS011;9109;48.050;11.696;2022-07-29T13:14:30;4.82;;;1.63;;
17967;SDS011;9109;48.050;11.696;2022-07-29T13:17:33;1.75;;;1.52;;
17967;SDS011;9109;48.050;11.696;2022-07-29T13:20:43;2.72;;;1.60;;
17967;SDS011;9109;48.050;11.696;2022-07-29T13:23:45;3.20;;;1.80;;
17967;SDS011;9109;48.050;11.696;2022-07-29T13:26:47;2.55;;;1.55;;
17967;SDS011;9109;48.050;11.696;2022-07-29T13:29:49;5.05;;;1.55;;
17967;SDS011;9109;48.050;11.696;2022-07-29T13:32:52;1.88;;;1.45;;
17967;SDS011;9109;48.050;11.696;2022-07-29T13:35:56;8.50;;;1.80;;
17967;SDS011;9109;48.050;11.696;2022-07-29T13:38:58;3.78;;;1.67;;
17967;SDS011;9109;48.050;11.696;2022-07-29T13:42:02;3.47;;;1.63;;
17967;SDS011;9109;48.050;11.696;2022-07-29T13:45:05;2.33;;;1.60;;
17967;SDS011;9109;48.050;11.696;2022-07-29T13:48:08;4.72;;;1.85;;
17967;SDS011;9109;48.050;11.696;2022-07-29T13:51:12;3.80;;;1.65;;
17967;SDS011;9109;48.050;11.696;2022-07-29T13:54:14;3.33;;;1.65;;
17967;SDS011;9109;48.050;11.696;2022-07-29T13:57:16;1.77;;;1.60;;
17967;SDS011;9109;48.050;11.696;2022-07-29T14:00:18;5.15;;;1.67;;
17967;SDS011;9109;48.050;11.696;2022-07-29T14:03:20;3.47;;;1.98;;
17967;SDS011;9109;48.050;11.696;2022-07-29T14:06:24;3.67;;;2.22;;
17967;SDS011;9109;48.050;11.696;2022-07-29T14:09:26;2.22;;;1.75;;
17967;SDS011;9109;48.050;11.696;2022-07-29T14:12:28;4.80;;;1.77;;
17967;SDS011;9109;48.050;11.696;2022-07-29T14:15:30;4.28;;;2.03;;
17967;SDS011;9109;48.050;11.696;2022-07-29T14:18:32;2.88;;;1.80;;
17967;SDS011;9109;48.050;11.696;2022-07-29T14:21:35;4.30;;;1.65;;
17967;SDS011;9109;48.050;11.696;2022-07-29T14:24:37;4.28;;;2.15;;
17967;SDS011;9109;48.050;11.696;2022-07-29T14:27:39;3.65;;;1.75;;
17967;SDS011;9109;48.050;11.696;2022-07-29T14:30:41;5.63;;;1.98;;
17967;SDS011;9109;48.050;11.696;2022-07-29T14:33:43;2.33;;;1.80;;
17967;SDS011;9109;48.050;11.696;2022-07-29T14:36:46;7.82;;;1.90;;
17967;SDS011;9109;48.050;11.696;2022-07-29T14:39:48;3.75;;;1.88;;
17967;SDS011;9109;48.050;11.696;2022-07-29T14:42:51;4.40;;;1.60;;
17967;SDS011;9109;48.050;11.696;2022-07-29T14:45:53;2.65;;;1.90;;
17967;SDS011;9109;48.050;11.696;2022-07-29T14:48:54;3.80;;;1.95;;
17967;SDS011;9109;48.050;11.696;2022-07-29T14:51:58;3.22;;;1.55;;
17967;SDS011;9109;48.050;11.696;2022-07-29T14:55:00;2.42;;;1.77;;
17967;SDS011;9109;48.050;11.696;2022-07-29T14:58:02;3.50;;;1.90;;
17967;SDS011;9109;48.050;11.696;2022-07-29T15:01:04;3.97;;;1.90;;
17967;SDS011;9109;48.050;11.696;2022-07-29T15:04:06;3.13;;;1.92;;
17967;SDS011;9109;48.050;11.696;2022-07-29T15:07:09;4.18;;;1.90;;
17967;SDS011;9109;48.050;11.696;2022-07-29T15:10:11;2.97;;;2.00;;
17967;SDS011;9109;48.050;11.696;2022-07-29T15:13:13;2.70;;;1.63;;
17967;SDS011;9109;48.050;11.696;2022-07-29T15:16:14;6.47;;;2.10;;
17967;SDS011;9109;48.050;11.696;2022-07-29T15:19:16;3.33;;;1.80;;
17967;SDS011;9109;48.050;11.696;2022-07-29T15:22:20;5.78;;;2.72;;
17967;SDS011;9109;48.050;11.696;2022-07-29T15:25:22;3.05;;;2.30;;
17967;SDS011;9109;48.050;11.696;2022-07-29T15:28:23;6.30;;;2.38;;
17967;SDS011;9109;48.050;11.696;2022-07-29T15:31:25;6.40;;;1.92;;
17967;SDS011;9109;48.050;11.696;2022-07-29T15:34:27;3.10;;;2.10;;
17967;SDS011;9109;48.050;11.696;2022-07-29T15:37:31;2.60;;;1.70;;
17967;SDS011;9109;48.050;11.696;2022-07-29T15:40:36;2.20;;;1.70;;
17967;SDS011;9109;48.050;11.696;2022-07-29T15:43:38;8.13;;;1.60;;
17967;SDS011;9109;48.050;11.696;2022-07-29T15:46:45;2.20;;;1.50;;
17967;SDS011;9109;48.050;11.696;2022-07-29T15:50:06;3.05;;;1.70;;
17967;SDS011;9109;48.050;11.696;2022-07-29T15:53:16;5.13;;;1.90;;
17967;SDS011;9109;48.050;11.696;2022-07-29T15:56:18;3.70;;;1.92;;
17967;SDS011;9109;48.050;11.696;2022-07-29T15:59:20;5.03;;;1.83;;
17967;SDS011;9109;48.050;11.696;2022-07-29T16:02:22;3.05;;;1.90;;
17967;SDS011;9109;48.050;11.696;2022-07-29T16:05:37;4.72;;;1.90;;
17967;SDS011;9109;48.050;11.696;2022-07-29T16:08:40;5.90;;;1.70;;
17967;SDS011;9109;48.050;11.696;2022-07-29T16:11:42;3.30;;;1.40;;
17967;SDS011;9109;48.050;11.696;2022-07-29T16:14:45;3.03;;;1.73;;
17967;SDS011;9109;48.050;11.696;2022-07-29T16:17:48;3.45;;;2.00;;
17967;SDS011;9109;48.050;11.696;2022-07-29T16:20:50;6.43;;;1.95;;
17967;SDS011;9109;48.050;11.696;2022-07-29T16:23:55;4.45;;;1.70;;
17967;SDS011;9109;48.050;11.696;2022-07-29T16:26:57;3.75;;;1.92;;
17967;SDS011;9109;48.050;11.696;2022-07-29T16:29:59;3.95;;;2.17;;
17967;SDS011;9109;48.050;11.696;2022-07-29T16:33:01;5.32;;;2.03;;
17967;SDS011;9109;48.050;11.696;2022-07-29T16:36:04;2.28;;;1.75;;
17967;SDS011;9109;48.050;11.696;2022-07-29T16:39:08;3.22;;;1.85;;
17967;SDS011;9109;48.050;11.696;2022-07-29T16:42:11;2.65;;;1.90;;
17967;SDS011;9109;48.050;11.696;2022-07-29T16:45:13;6.97;;;2.13;;
17967;SDS011;9109;48.050;11.696;2022-07-29T16:48:15;5.07;;;2.10;;
17967;SDS011;9109;48.050;11.696;2022-07-29T16:51:17;6.05;;;2.15;;
17967;SDS011;9109;48.050;11.696;2022-07-29T16:54:21;5.53;;;2.25;;
17967;SDS011;9109;48.050;11.696;2022-07-29T16:57:22;5.63;;;2.20;;
17967;SDS011;9109;48.050;11.696;2022-07-29T17:00:24;4.30;;;2.20;;
17967;SDS011;9109;48.050;11.696;2022-07-29T17:03:26;8.15;;;2.30;;
17967;SDS011;9109;48.050;11.696;2022-07-29T17:06:28;6.45;;;2.13;;
17967;SDS011;9109;48.050;11.696;2022-07-29T17:09:33;4.20;;;2.40;;
17967;SDS011;9109;48.050;11.696;2022-07-29T17:12:35;7.10;;;2.38;;
17967;SDS011;9109;48.050;11.696;2022-07-29T17:15:37;4.18;;;2.40;;
17967;SDS011;9109;48.050;11.696;2022-07-29T17:18:39;3.67;;;2.42;;
17967;SDS011;9109;48.050;11.696;2022-07-29T17:21:40;6.35;;;2.50;;
17967;SDS011;9109;48.050;11.696;2022-07-29T17:24:44;3.13;;;2.20;;
17967;SDS011;9109;48.050;11.696;2022-07-29T17:27:46;11.23;;;3.10;;
17967;SDS011;9109;48.050;11.696;2022-07-29T17:30:48;2.78;;;2.13;;
17967;SDS011;9109;48.050;11.696;2022-07-29T17:33:50;4.05;;;2.10;;
17967;SDS011;9109;48.050;11.696;2022-07-29T17:36:52;7.35;;;2.30;;
17967;SDS011;9109;48.050;11.696;2022-07-29T17:39:55;3.10;;;2.08;;
17967;SDS011;9109;48.050;11.696;2022-07-29T17:42:57;2.63;;;2.00;;
17967;SDS011;9109;48.050;11.696;2022-07-29T17:45:59;3.42;;;2.22;;
17967;SDS011;9109;48.050;11.696;2022-07-29T17:49:02;7.20;;;3.90;;
17967;SDS011;9109;48.050;11.696;2022-07-29T17:52:04;3.35;;;1.85;;
17967;SDS011;9109;48.050;11.696;2022-07-29T17:55:08;2.17;;;1.80;;
17967;SDS011;9109;48.050;11.696;2022-07-29T17:58:12;4.05;;;2.13;;
17967;SDS011;9109;48.050;11.696;2022-07-29T18:01:14;3.90;;;1.95;;
17967;SDS011;9109;48.050;11.696;2022-07-29T18:04:16;7.00;;;2.20;;
17967;SDS011;9109;48.050;11.696;2022-07-29T18:07:20;12.10;;;2.03;;
17967;SDS011;9109;48.050;11.696;2022-07-29T18:10:23;3.35;;;1.90;;
17967;SDS011;9109;48.050;11.696;2022-07-29T18:13:25;3.42;;;1.90;;
17967;SDS011;9109;48.050;11.696;2022-07-29T18:16:27;4.70;;;1.50;;
17967;SDS011;9109;48.050;11.696;2022-07-29T18:19:29;4.43;;;1.50;;
17967;SDS011;9109;48.050;11.696;2022-07-29T18:22:31;4.95;;;1.58;;
17967;SDS011;9109;48.050;11.696;2022-07-29T18:25:34;7.05;;;1.70;;
17967;SDS011;9109;48.050;11.696;2022-07-29T18:28:36;3.03;;;1.50;;
17967;SDS011;9109;48.050;11.696;2022-07-29T18:31:38;7.70;;;2.15;;
17967;SDS011;9109;48.050;11.696;2022-07-29T18:34:40;3.25;;;1.38;;
17967;SDS011;9109;48.050;11.696;2022-07-29T18:37:42;6.65;;;1.52;;
17967;SDS011;9109;48.050;11.696;2022-07-29T18:40:46;3.70;;;1.58;;
17967;SDS011;9109;48.050;11.696;2022-07-29T18:43:48;2.03;;;1.40;;
17967;SDS011;9109;48.050;11.696;2022-07-29T18:46:50;3.35;;;1.60;;
17967;SDS011;9109;48.050;11.696;2022-07-29T18:49:53;1.90;;;1.35;;
17967;SDS011;9109;48.050;11.696;2022-07-29T18:52:55;3.17;;;1.80;;
17967;SDS011;9109;48.050;11.696;2022-07-29T18:55:58;3.05;;;1.75;;
17967;SDS011;9109;48.050;11.696;2022-07-29T18:59:02;2.40;;;1.42;;
17967;SDS011;9109;48.050;11.696;2022-07-29T19:02:04;1.95;;;1.58;;
17967;SDS011;9109;48.050;11.696;2022-07-29T19:05:07;5.05;;;1.85;;
17967;SDS011;9109;48.050;11.696;2022-07-29T19:08:10;3.92;;;1.70;;
17967;SDS011;9109;48.050;11.696;2022-07-29T19:11:14;1.75;;;1.63;;
17967;SDS011;9109;48.050;11.696;2022-07-29T19:14:16;6.07;;;1.50;;
17967;SDS011;9109;48.050;11.696;2022-07-29T19:17:18;3.33;;;1.70;;
17967;SDS011;9109;48.050;11.696;2022-07-29T19:20:20;5.55;;;1.98;;
17967;SDS011;9109;48.050;11.696;2022-07-29T19:23:22;2.60;;;1.73;;
17967;SDS011;9109;48.050;11.696;2022-07-29T19:26:25;2.38;;;1.70;;
17967;SDS011;9109;48.050;11.696;2022-07-29T19:29:27;1.73;;;1.35;;
17967;SDS011;9109;48.050;11.696;2022-07-29T19:32:31;4.47;;;2.03;;
17967;SDS011;9109;48.050;11.696;2022-07-29T19:35:33;2.85;;;1.52;;
17967;SDS011;9109;48.050;11.696;2022-07-29T19:38:35;2.30;;;1.60;;
17967;SDS011;9109;48.050;11.696;2022-07-29T19:41:39;4.60;;;1.73;;
17967;SDS011;9109;48.050;11.696;2022-07-29T19:44:41;2.50;;;1.60;;
17967;SDS011;9109;48.050;11.696;2022-07-29T19:47:43;4.78;;;1.88;;
17967;SDS011;9109;48.050;11.696;2022-07-29T19:50:46;8.23;;;2.00;;
17967;SDS011;9109;48.050;11.696;2022-07-29T19:53:48;3.70;;;1.80;;
17967;SDS011;9109;48.050;11.696;2022-07-29T19:56:52;4.82;;;2.10;;
17967;SDS011;9109;48.050;11.696;2022-07-29T19:59:54;3.72;;;2.15;;
17967;SDS011;9109;48.050;11.696;2022-07-29T20:02:56;5.20;;;2.08;;
17967;SDS011;9109;48.050;11.696;2022-07-29T20:05:58;2.72;;;1.35;;
17967;SDS011;9109;48.050;11.696;2022-07-29T20:09:00;3.13;;;1.52;;
17967;SDS011;9109;48.050;11.696;2022-07-29T20:12:05;4.80;;;1.55;;
17967;SDS011;9109;48.050;11.696;2022-07-29T20:15:07;5.43;;;1.73;;
17967;SDS011;9109;48.050;11.696;2022-07-29T20:18:12;5.00;;;1.42;;
17967;SDS011;9109;48.050;11.696;2022-07-29T20:21:14;11.80;;;1.67;;
17967;SDS011;9109;48.050;11.696;2022-07-29T20:24:16;3.45;;;1.30;;
17967;SDS011;9109;48.050;11.696;2022-07-29T20:27:20;2.67;;;1.30;;
17967;SDS011;9109;48.050;11.696;2022-07-29T20:30:23;4.68;;;1.58;;
17967;SDS011;9109;48.050;11.696;2022-07-29T20:33:25;2.45;;;1.70;;
17967;SDS011;9109;48.050;11.696;2022-07-29T20:36:27;2.33;;;1.35;;
17967;SDS011;9109;48.050;11.696;2022-07-29T20:39:29;2.75;;;1.50;;
17967;SDS011;9109;48.050;11.696;2022-07-29T20:42:32;2.20;;;1.63;;
17967;SDS011;9109;48.050;11.696;2022-07-29T20:45:34;3.75;;;1.55;;
17967;SDS011;9109;48.050;11.696;2022-07-29T20:48:37;3.38;;;1.92;;
17967;SDS011;9109;48.050;11.696;2022-07-29T20:51:39;6.22;;;1.45;;
17967;SDS011;9109;48.050;11.696;2022-07-29T20:54:41;10.10;;;1.63;;
17967;SDS011;9109;48.050;11.696;2022-07-29T20:57:44;4.50;;;1.63;;
17967;SDS011;9109;48.050;11.696;2022-07-29T21:00:46;2.65;;;1.30;;
17967;SDS011;9109;48.050;11.696;2022-07-29T21:03:48;1.80;;;1.48;;
17967;SDS011;9109;48.050;11.696;2022-07-29T21:06:50;5.30;;;1.40;;
17967;SDS011;9109;48.050;11.696;2022-07-29T21:09:52;7.32;;;1.50;;
17967;SDS011;9109;48.050;11.696;2022-07-29T21:12:56;2.35;;;1.50;;
17967;SDS011;9109;48.050;11.696;2022-07-29T21:15:57;2.47;;;1.40;;
17967;SDS011;9109;48.050;11.696;2022-07-29T21:19:00;3.90;;;1.48;;
17967;SDS011;9109;48.050;11.696;2022-07-29T21:22:02;5.10;;;1.70;;
17967;SDS011;9109;48.050;11.696;2022-07-29T21:25:04;4.00;;;1.40;;
17967;SDS011;9109;48.050;11.696;2022-07-29T21:28:10;4.07;;;1.67;;
17967;SDS011;9109;48.050;11.696;2022-07-29T21:31:28;3.58;;;1.92;;
17967;SDS011;9109;48.050;11.696;2022-07-29T21:34:30;3.78;;;1.88;;
17967;SDS011;9109;48.050;11.696;2022-07-29T21:37:32;8.80;;;1.92;;
17967;SDS011;9109;48.050;11.696;2022-07-29T21:40:34;4.00;;;1.55;;
17967;SDS011;9109;48.050;11.696;2022-07-29T21:43:37;2.92;;;1.60;;
17967;SDS011;9109;48.050;11.696;2022-07-29T21:46:41;2.50;;;1.70;;
17967;SDS011;9109;48.050;11.696;2022-07-29T21:49:44;4.55;;;1.30;;
17967;SDS011;9109;48.050;11.696;2022-07-29T21:52:49;1.80;;;1.40;;
17967;SDS011;9109;48.050;11.696;2022-07-29T21:55:51;2.17;;;1.35;;
17967;SDS011;9109;48.050;11.696;2022-07-29T21:58:55;2.28;;;1.70;;
17967;SDS011;9109;48.050;11.696;2022-07-29T22:01:57;3.00;;;1.35;;
17967;SDS011;9109;48.050;11.696;2022-07-29T22:04:59;4.35;;;1.45;;
17967;SDS011;9109;48.050;11.696;2022-07-29T22:08:01;5.10;;;1.30;;
17967;SDS011;9109;48.050;11.696;2022-07-29T22:11:03;4.85;;;1.50;;
17967;SDS011;9109;48.050;11.696;2022-07-29T22:14:11;1.40;;;1.08;;
17967;SDS011;9109;48.050;11.696;2022-07-29T22:17:14;2.17;;;1.45;;
17967;SDS011;9109;48.050;11.696;2022-07-29T22:20:18;3.13;;;1.40;;
17967;SDS011;9109;48.050;11.696;2022-07-29T22:23:20;2.22;;;1.20;;
17967;SDS011;9109;48.050;11.696;2022-07-29T22:26:22;2.50;;;1.63;;
17967;SDS011;9109;48.050;11.696;2022-07-29T22:29:26;4.00;;;1.70;;